• Join FlightAware (Why Join?)
  • Login
  • US Flag 
04:13PM EDT


 

Airport Tracker/Info


-or-


 

Live Flight TrackerFlight Track Log ✈ UAL5840 ✈ 16-Apr-2013 ✈ KORD - KLEX

Flight Track Log - Related Links

Times and Time Zones

All times are in EDT time to prevent confusion due to time zone crossing. See the UAL5840 flight status page for this flight to view local times or setup timezone preferences in your user account.

Time Position Orientation Groundspeed Altitude Reporting Facility
EDT Latitude Longitude Course Direction KTS MPH feet Rate Location/Type
05:55PM 41.9667 -87.8667 159° South 164 189 2,400  Level Chicago TRACON
05:56PM 41.9333 -87.8333 143° Southeast 200 230 4,500 2,280 Climbing Chicago TRACON
05:57PM 41.8667 -87.8333 180° South 205 236 7,000 2,040 Climbing Chicago TRACON
05:58PM 41.8167 -87.8333 180° South 222 255 8,400 1,500 Climbing Chicago TRACON
05:59PM 41.6547 -87.6151 156° South  Level Estimated
06:00PM 41.5572 -87.5999 173° South  Level FlightAware Approximate
06:00PM 41.7058 -87.7861 162° South 282 325 10,900  Level Chicago Center
06:01PM 41.4766 -87.5271 159° South  Level Estimated
06:01PM 41.6142 -87.7153 150° Southeast 314 361 13,100  Level Chicago Center
06:02PM 41.5367 -87.6567 150° Southeast 318 366 14,800 1,500 Climbing Chicago Center
06:03PM 41.4586 -87.5969 150° Southeast 320 368 16,200 960 Climbing Chicago Center
06:04PM 41.3697 -87.5622 164° South 337 388 16,800 660 Climbing Chicago Center
06:05PM 41.2692 -87.5333 168° South 371 427 17,600 960 Climbing Chicago Center
06:06PM 41.1700 -87.4864 160° South 382 440 18,800 1,380 Climbing Chicago Center
06:07PM 41.0672 -87.4856 180° South 370 426 20,500 1,500 Climbing Chicago Center
06:08PM 40.9433 -87.4636 172° South 373 429 21,900 1,140 Climbing Chicago Center
06:09PM 40.8358 -87.4361 169° South 390 449 22,900 960 Climbing Chicago Center
06:10PM 40.7283 -87.4061 168° South 394 453 23,900 960 Climbing Chicago Center
06:11PM 40.6208 -87.3797 169° South 395 455 25,000 1,080 Climbing Chicago Center
06:12PM 40.5147 -87.3506 168° South 391 450 26,200 960 Climbing Chicago Center
06:14PM 40.3886 -87.3056 165° South 391 450 27,000 360 Climbing Chicago Center
06:15PM 40.2803 -87.2508 159° South 413 475 27,000  Level Chicago Center
06:16PM 40.1689 -87.1986 160° South 421 484 27,000  Level Chicago Center
06:16PM 40.0886 -87.1639 162° South 436 502 27,000  Level Indianapolis Center
06:17PM 39.9497 -87.0869 157° South 453 521 27,000  Level Indianapolis Center
06:18PM 39.8408 -86.9950 147° Southeast 461 531 27,000  Level Indianapolis Center
06:19PM 39.7319 -86.8975 145° Southeast 471 542 27,000 -300 Level Indianapolis Center
06:20PM 39.6236 -86.7958 144° Southeast 476 548 26,500 -720 Descending Indianapolis Center
06:21PM 39.5158 -86.6961 144° Southeast 473 544 25,600 -960 Descending Indianapolis Center
06:23PM 39.4119 -86.5989 144° Southeast 461 531 24,600 -1,020 Descending Indianapolis Center
06:24PM 39.3097 -86.5039 144° Southeast 452 520 23,600 -840 Descending Indianapolis Center
06:25PM 39.2197 -86.3883 135° Southeast 462 532 23,000 -300 Descending Indianapolis Center
06:26PM 39.1836 -86.2231 106° East 484 557 23,000  Level Indianapolis Center
06:27PM 39.1581 -86.0497 101° East 491 565 23,000  Level Indianapolis Center
06:28PM 39.1450 -85.8381 94° East 493 567 23,000  Level Indianapolis Center
06:29PM 39.1444 -85.6669 90° East 478 550 23,000  Level Indianapolis Center
06:30PM 39.1417 -85.4903 91° East 488 562 23,000  Level Indianapolis Center
06:31PM 39.1325 -85.3122 94° East 496 571 23,000  Level Indianapolis Center
06:32PM 39.1042 -85.1400 102° East 491 565 23,000  Level Indianapolis Center
06:33PM 39.0342 -84.9981 122° Southeast 471 542 23,000  Level Indianapolis Center
06:34PM 38.9367 -84.8922 140° Southeast 460 529 23,000  Level Indianapolis Center
06:35PM 38.8064 -84.8578 168° South 426 490 23,000  Level Indianapolis Center
06:36PM 38.7081 -84.8911 195° South 415 478 23,000 -300 Level Indianapolis Center
06:37PM 38.5856 -84.8331 160° South 451 519 22,500 -1,140 Descending Indianapolis Center
06:38PM 38.4742 -84.7625 154° Southeast 447 514 20,700 -2,100 Descending Indianapolis Center
06:39PM 38.3669 -84.6981 155° Southeast 432 497 18,300 -2,400 Descending Indianapolis Center
06:40PM 38.2647 -84.6428 157° South 408 470 15,800 -2,880 Descending Indianapolis Center
06:41PM 38.1472 -84.6228 172° South 370 426 12,400 -2,640 Descending Indianapolis Center
06:42PM 38.0519 -84.6097 174° South 350 403 10,400 -1,260 Descending Indianapolis Center
06:43PM 37.9714 -84.5942 171° South 303 349 9,900 -780 Descending Indianapolis Center
06:44PM 37.9231 -84.5181 129° Southeast 295 339 8,800 -1,320 Descending Indianapolis Center
06:45PM 37.8875 -84.4319 118° Southeast 284 327 7,300 -1,620 Descending Indianapolis Center
06:46PM 37.9558 -84.3872 27° Northeast 280 322 5,600 -1,440 Descending Indianapolis Center
06:47PM 38.0400 -84.3681 10° North 271 312 4,400 -1,080 Descending Indianapolis Center
06:48PM 38.0903 -84.4036 331° Northwest 252 290 3,400 -780 Descending Indianapolis Center
06:49PM 38.1172 -84.4692 298° West 224 258 2,900 -540 Descending Indianapolis Center